sensor_id;sensor_type;location;lat;lon;timestamp;pressure;altitude;pressure_sealevel;temperature;humidity
11499;BME280;5806;48.748;9.278;2023-05-19T00:01:53;101910.12;;;10.88;63.47
11499;BME280;5806;48.748;9.278;2023-05-19T00:04:21;101903.12;;;10.77;64.59
11499;BME280;5806;48.748;9.278;2023-05-19T00:06:49;101904.05;;;10.73;64.66
11499;BME280;5806;48.748;9.278;2023-05-19T00:09:17;101906.27;;;10.74;65.11
11499;BME280;5806;48.748;9.278;2023-05-19T00:11:45;101907.83;;;10.79;65.29
11499;BME280;5806;48.748;9.278;2023-05-19T00:14:13;101906.89;;;10.82;64.57
11499;BME280;5806;48.748;9.278;2023-05-19T00:16:40;101900.91;;;10.70;65.44
11499;BME280;5806;48.748;9.278;2023-05-19T00:19:08;101898.69;;;10.82;64.76
11499;BME280;5806;48.748;9.278;2023-05-19T00:21:36;101904.17;;;10.69;65.07
11499;BME280;5806;48.748;9.278;2023-05-19T00:24:04;101907.98;;;10.62;65.43
11499;BME280;5806;48.748;9.278;2023-05-19T00:26:32;101905.89;;;10.64;65.89
11499;BME280;5806;48.748;9.278;2023-05-19T00:28:59;101901.79;;;10.51;66.23
11499;BME280;5806;48.748;9.278;2023-05-19T00:31:27;101897.48;;;10.52;66.04
11499;BME280;5806;48.748;9.278;2023-05-19T00:33:56;101905.19;;;10.46;65.22
11499;BME280;5806;48.748;9.278;2023-05-19T00:36:24;101900.63;;;10.49;65.23
11499;BME280;5806;48.748;9.278;2023-05-19T00:38:52;101898.13;;;10.41;66.32
11499;BME280;5806;48.748;9.278;2023-05-19T00:41:19;101903.50;;;10.32;66.00
11499;BME280;5806;48.748;9.278;2023-05-19T00:43:48;101900.13;;;10.43;66.10
11499;BME280;5806;48.748;9.278;2023-05-19T00:46:18;101905.09;;;10.44;65.54
11499;BME280;5806;48.748;9.278;2023-05-19T00:48:47;101906.55;;;10.33;65.53
11499;BME280;5806;48.748;9.278;2023-05-19T00:51:14;101906.66;;;10.42;65.71
11499;BME280;5806;48.748;9.278;2023-05-19T00:53:43;101910.55;;;10.31;66.16
11499;BME280;5806;48.748;9.278;2023-05-19T00:56:15;101907.59;;;10.39;65.97
11499;BME280;5806;48.748;9.278;2023-05-19T00:58:43;101912.78;;;10.18;66.42
11499;BME280;5806;48.748;9.278;2023-05-19T01:01:11;101911.19;;;10.06;66.37
11499;BME280;5806;48.748;9.278;2023-05-19T01:03:41;101912.25;;;10.05;67.13
11499;BME280;5806;48.748;9.278;2023-05-19T01:06:09;101904.33;;;10.00;67.02
11499;BME280;5806;48.748;9.278;2023-05-19T01:08:38;101906.03;;;10.01;66.50
11499;BME280;5806;48.748;9.278;2023-05-19T01:11:06;101904.87;;;9.99;67.32
11499;BME280;5806;48.748;9.278;2023-05-19T01:13:35;101909.95;;;10.09;66.98
11499;BME280;5806;48.748;9.278;2023-05-19T01:16:10;101909.89;;;9.83;67.01
11499;BME280;5806;48.748;9.278;2023-05-19T01:24:29;101906.75;;;9.79;67.43
11499;BME280;5806;48.748;9.278;2023-05-19T01:29:54;101900.83;;;9.69;68.02
11499;BME280;5806;48.748;9.278;2023-05-19T01:31:59;101881.29;;;9.59;68.04
11499;BME280;5806;48.748;9.278;2023-05-19T01:34:29;101898.65;;;9.75;67.60
11499;BME280;5806;48.748;9.278;2023-05-19T01:36:58;101898.00;;;9.80;68.03
11499;BME280;5806;48.748;9.278;2023-05-19T01:39:27;101893.48;;;9.70;67.84
11499;BME280;5806;48.748;9.278;2023-05-19T01:41:57;101896.62;;;9.60;68.16
11499;BME280;5806;48.748;9.278;2023-05-19T01:44:26;101896.30;;;9.53;69.00
11499;BME280;5806;48.748;9.278;2023-05-19T01:46:54;101893.98;;;9.56;69.19
11499;BME280;5806;48.748;9.278;2023-05-19T01:49:22;101891.27;;;9.63;68.31
11499;BME280;5806;48.748;9.278;2023-05-19T01:51:49;101893.69;;;9.62;68.04
11499;BME280;5806;48.748;9.278;2023-05-19T01:54:17;101892.30;;;9.49;68.38
11499;BME280;5806;48.748;9.278;2023-05-19T02:05:12;101893.56;;;9.46;68.78
11499;BME280;5806;48.748;9.278;2023-05-19T02:07:43;101899.51;;;9.33;68.56
11499;BME280;5806;48.748;9.278;2023-05-19T02:10:13;101903.16;;;9.29;68.60
11499;BME280;5806;48.748;9.278;2023-05-19T02:12:44;101901.06;;;9.25;68.42
11499;BME280;5806;48.748;9.278;2023-05-19T02:15:20;101908.06;;;9.17;68.92
11499;BME280;5806;48.748;9.278;2023-05-19T02:17:49;101910.91;;;9.19;69.17
11499;BME280;5806;48.748;9.278;2023-05-19T02:20:19;101904.95;;;9.26;69.23
11499;BME280;5806;48.748;9.278;2023-05-19T02:22:50;101903.53;;;9.20;69.05
11499;BME280;5806;48.748;9.278;2023-05-19T02:25:17;101908.89;;;9.17;68.89
11499;BME280;5806;48.748;9.278;2023-05-19T02:27:45;101905.08;;;9.12;68.98
11499;BME280;5806;48.748;9.278;2023-05-19T02:30:14;101904.86;;;9.07;69.28
11499;BME280;5806;48.748;9.278;2023-05-19T02:32:41;101907.08;;;9.07;69.31
11499;BME280;5806;48.748;9.278;2023-05-19T02:35:11;101909.78;;;9.01;69.72
11499;BME280;5806;48.748;9.278;2023-05-19T02:37:39;101906.41;;;9.22;69.26
11499;BME280;5806;48.748;9.278;2023-05-19T02:40:07;101903.68;;;9.22;69.17
11499;BME280;5806;48.748;9.278;2023-05-19T02:42:34;101906.68;;;9.10;69.54
11499;BME280;5806;48.748;9.278;2023-05-19T02:45:02;101899.48;;;9.03;69.81
11499;BME280;5806;48.748;9.278;2023-05-19T02:47:30;101896.48;;;8.85;70.15
11499;BME280;5806;48.748;9.278;2023-05-19T02:49:57;101898.87;;;9.01;69.73
11499;BME280;5806;48.748;9.278;2023-05-19T02:52:25;101892.42;;;8.68;70.19
11499;BME280;5806;48.748;9.278;2023-05-19T02:54:52;101889.38;;;8.73;70.55
11499;BME280;5806;48.748;9.278;2023-05-19T02:57:20;101890.23;;;8.74;70.32
11499;BME280;5806;48.748;9.278;2023-05-19T02:59:47;101895.39;;;8.56;70.73
11499;BME280;5806;48.748;9.278;2023-05-19T03:02:15;101888.33;;;8.68;70.19
11499;BME280;5806;48.748;9.278;2023-05-19T03:04:42;101886.63;;;8.50;70.54
11499;BME280;5806;48.748;9.278;2023-05-19T03:07:11;101887.20;;;8.56;70.79
11499;BME280;5806;48.748;9.278;2023-05-19T03:09:41;101886.39;;;8.62;70.87
11499;BME280;5806;48.748;9.278;2023-05-19T03:12:09;101877.23;;;8.59;71.08
11499;BME280;5806;48.748;9.278;2023-05-19T03:14:36;101883.28;;;8.48;71.09
11499;BME280;5806;48.748;9.278;2023-05-19T03:17:04;101877.28;;;8.48;70.74
11499;BME280;5806;48.748;9.278;2023-05-19T03:19:35;101878.10;;;8.42;70.94
11499;BME280;5806;48.748;9.278;2023-05-19T03:22:03;101879.34;;;8.40;71.03
11499;BME280;5806;48.748;9.278;2023-05-19T03:24:31;101871.95;;;8.34;71.45
11499;BME280;5806;48.748;9.278;2023-05-19T03:26:59;101877.02;;;8.37;71.41
11499;BME280;5806;48.748;9.278;2023-05-19T03:29:27;101871.72;;;8.29;71.10
11499;BME280;5806;48.748;9.278;2023-05-19T03:31:55;101879.16;;;8.31;71.49
11499;BME280;5806;48.748;9.278;2023-05-19T03:34:22;101884.26;;;8.40;70.90
11499;BME280;5806;48.748;9.278;2023-05-19T03:36:50;101882.62;;;8.46;70.33
11499;BME280;5806;48.748;9.278;2023-05-19T03:39:17;101888.55;;;8.39;70.06
11499;BME280;5806;48.748;9.278;2023-05-19T03:41:45;101888.00;;;8.33;70.88
11499;BME280;5806;48.748;9.278;2023-05-19T03:44:13;101886.24;;;8.36;70.21
11499;BME280;5806;48.748;9.278;2023-05-19T03:46:40;101892.23;;;8.14;71.54
11499;BME280;5806;48.748;9.278;2023-05-19T03:49:08;101889.83;;;8.43;70.26
11499;BME280;5806;48.748;9.278;2023-05-19T03:51:36;101891.19;;;8.26;70.65
11499;BME280;5806;48.748;9.278;2023-05-19T03:54:04;101886.87;;;8.38;70.60
11499;BME280;5806;48.748;9.278;2023-05-19T03:56:32;101891.19;;;8.26;70.53
11499;BME280;5806;48.748;9.278;2023-05-19T03:58:59;101887.87;;;8.30;70.60
11499;BME280;5806;48.748;9.278;2023-05-19T04:01:27;101885.27;;;8.33;70.13
11499;BME280;5806;48.748;9.278;2023-05-19T04:03:54;101887.87;;;8.30;70.50
11499;BME280;5806;48.748;9.278;2023-05-19T04:06:22;101879.77;;;8.26;70.90
11499;BME280;5806;48.748;9.278;2023-05-19T04:08:49;101885.58;;;8.34;70.56
11499;BME280;5806;48.748;9.278;2023-05-19T04:11:17;101880.20;;;8.30;70.97
11499;BME280;5806;48.748;9.278;2023-05-19T04:13:46;101883.86;;;8.26;71.58
11499;BME280;5806;48.748;9.278;2023-05-19T04:16:13;101892.31;;;8.21;71.96
11499;BME280;5806;48.748;9.278;2023-05-19T04:18:41;101893.05;;;8.15;72.49
11499;BME280;5806;48.748;9.278;2023-05-19T04:21:10;101886.36;;;8.21;72.15
11499;BME280;5806;48.748;9.278;2023-05-19T04:23:37;101887.48;;;8.12;72.45
11499;BME280;5806;48.748;9.278;2023-05-19T04:26:05;101893.59;;;8.14;72.81
11499;BME280;5806;48.748;9.278;2023-05-19T04:28:32;101886.91;;;8.27;72.53
11499;BME280;5806;48.748;9.278;2023-05-19T04:31:01;101892.01;;;8.37;71.89
11499;BME280;5806;48.748;9.278;2023-05-19T04:33:29;101885.78;;;8.49;71.58
11499;BME280;5806;48.748;9.278;2023-05-19T04:35:56;101883.12;;;8.45;71.57
11499;BME280;5806;48.748;9.278;2023-05-19T04:38:23;101888.89;;;8.19;72.31
11499;BME280;5806;48.748;9.278;2023-05-19T04:40:51;101885.38;;;8.08;72.84
11499;BME280;5806;48.748;9.278;2023-05-19T04:43:18;101892.89;;;8.06;73.06
11499;BME280;5806;48.748;9.278;2023-05-19T04:45:47;101895.16;;;8.23;72.89
11499;BME280;5806;48.748;9.278;2023-05-19T04:48:16;101889.31;;;8.16;72.79
11499;BME280;5806;48.748;9.278;2023-05-19T04:50:44;101890.33;;;8.36;72.41
11499;BME280;5806;48.748;9.278;2023-05-19T04:53:13;101890.77;;;8.39;72.40
11499;BME280;5806;48.748;9.278;2023-05-19T04:55:41;101892.44;;;8.40;72.53
11499;BME280;5806;48.748;9.278;2023-05-19T04:58:08;101887.10;;;8.43;72.16
11499;BME280;5806;48.748;9.278;2023-05-19T05:00:36;101890.45;;;8.38;72.53
11499;BME280;5806;48.748;9.278;2023-05-19T05:03:04;101889.63;;;8.44;72.27
11499;BME280;5806;48.748;9.278;2023-05-19T05:05:33;101886.30;;;8.66;71.66
11499;BME280;5806;48.748;9.278;2023-05-19T05:08:00;101892.00;;;8.54;72.29
11499;BME280;5806;48.748;9.278;2023-05-19T05:10:28;101898.58;;;8.66;72.69
11499;BME280;5806;48.748;9.278;2023-05-19T05:12:56;101896.94;;;8.71;72.58
11499;BME280;5806;48.748;9.278;2023-05-19T05:15:23;101905.70;;;8.67;72.72
11499;BME280;5806;48.748;9.278;2023-05-19T05:17:52;101900.55;;;8.78;72.29
11499;BME280;5806;48.748;9.278;2023-05-19T05:20:20;101898.98;;;8.80;72.63
11499;BME280;5806;48.748;9.278;2023-05-19T05:22:48;101905.75;;;8.90;72.44
11499;BME280;5806;48.748;9.278;2023-05-19T05:25:16;101898.81;;;8.88;72.40
11499;BME280;5806;48.748;9.278;2023-05-19T05:27:44;101896.62;;;8.94;72.71
11499;BME280;5806;48.748;9.278;2023-05-19T05:30:12;101895.09;;;9.02;72.82
11499;BME280;5806;48.748;9.278;2023-05-19T05:32:39;101895.13;;;9.15;72.94
11499;BME280;5806;48.748;9.278;2023-05-19T05:35:07;101894.62;;;9.15;72.77
11499;BME280;5806;48.748;9.278;2023-05-19T05:37:35;101891.03;;;9.15;73.13
11499;BME280;5806;48.748;9.278;2023-05-19T05:40:02;101888.03;;;9.27;73.04
11499;BME280;5806;48.748;9.278;2023-05-19T05:42:32;101897.80;;;9.32;73.34
11499;BME280;5806;48.748;9.278;2023-05-19T05:44:59;101890.08;;;9.42;73.87
11499;BME280;5806;48.748;9.278;2023-05-19T05:47:26;101893.23;;;9.52;73.69
11499;BME280;5806;48.748;9.278;2023-05-19T05:49:54;101891.66;;;9.53;74.31
11499;BME280;5806;48.748;9.278;2023-05-19T05:52:24;101890.95;;;9.62;73.94
11499;BME280;5806;48.748;9.278;2023-05-19T05:54:52;101895.27;;;9.73;72.95
11499;BME280;5806;48.748;9.278;2023-05-19T05:57:20;101884.88;;;9.99;71.47
11499;BME280;5806;48.748;9.278;2023-05-19T05:59:48;101882.71;;;10.18;70.71
11499;BME280;5806;48.748;9.278;2023-05-19T06:02:18;101883.88;;;10.13;71.44
11499;BME280;5806;48.748;9.278;2023-05-19T06:04:46;101886.80;;;10.25;71.31
11499;BME280;5806;48.748;9.278;2023-05-19T06:07:14;101883.09;;;10.35;70.59
11499;BME280;5806;48.748;9.278;2023-05-19T06:09:41;101879.19;;;10.53;68.76
11499;BME280;5806;48.748;9.278;2023-05-19T06:12:09;101881.64;;;10.74;66.56
11499;BME280;5806;48.748;9.278;2023-05-19T06:14:36;101876.94;;;10.94;65.77
11499;BME280;5806;48.748;9.278;2023-05-19T06:17:04;101879.44;;;11.02;65.76
11499;BME280;5806;48.748;9.278;2023-05-19T06:19:31;101875.11;;;11.03;66.21
11499;BME280;5806;48.748;9.278;2023-05-19T06:21:59;101875.95;;;11.26;63.88
11499;BME280;5806;48.748;9.278;2023-05-19T06:24:26;101870.81;;;11.42;62.96
11499;BME280;5806;48.748;9.278;2023-05-19T06:26:53;101871.23;;;11.55;63.46
11499;BME280;5806;48.748;9.278;2023-05-19T06:29:21;101877.95;;;11.59;63.89
11499;BME280;5806;48.748;9.278;2023-05-19T06:31:48;101874.00;;;11.70;63.92
11499;BME280;5806;48.748;9.278;2023-05-19T06:34:16;101867.37;;;11.84;62.51
11499;BME280;5806;48.748;9.278;2023-05-19T06:36:44;101866.05;;;12.02;62.06
11499;BME280;5806;48.748;9.278;2023-05-19T06:39:11;101869.73;;;12.14;62.06
11499;BME280;5806;48.748;9.278;2023-05-19T06:41:38;101862.23;;;12.28;61.99
11499;BME280;5806;48.748;9.278;2023-05-19T06:44:06;101864.17;;;12.45;60.54
11499;BME280;5806;48.748;9.278;2023-05-19T06:46:36;101863.35;;;12.54;60.18
11499;BME280;5806;48.748;9.278;2023-05-19T06:49:04;101854.95;;;12.76;59.49
11499;BME280;5806;48.748;9.278;2023-05-19T06:51:31;101862.88;;;12.84;59.58
11499;BME280;5806;48.748;9.278;2023-05-19T06:54:00;101858.25;;;13.02;58.01
11499;BME280;5806;48.748;9.278;2023-05-19T06:56:28;101859.21;;;13.17;57.43
11499;BME280;5806;48.748;9.278;2023-05-19T06:58:55;101865.83;;;13.27;57.63
11499;BME280;5806;48.748;9.278;2023-05-19T07:01:23;101865.34;;;13.39;57.40
11499;BME280;5806;48.748;9.278;2023-05-19T07:03:52;101864.91;;;13.33;57.43
11499;BME280;5806;48.748;9.278;2023-05-19T07:06:19;101859.25;;;13.37;57.55
11499;BME280;5806;48.748;9.278;2023-05-19T07:08:46;101858.14;;;13.47;57.53
11499;BME280;5806;48.748;9.278;2023-05-19T07:11:14;101853.30;;;13.40;59.39
11499;BME280;5806;48.748;9.278;2023-05-19T07:13:41;101850.05;;;13.52;59.12
11499;BME280;5806;48.748;9.278;2023-05-19T07:16:09;101853.92;;;13.54;58.17
11499;BME280;5806;48.748;9.278;2023-05-19T07:18:36;101856.77;;;13.56;58.14
11499;BME280;5806;48.748;9.278;2023-05-19T07:21:03;101860.05;;;13.76;53.10
11499;BME280;5806;48.748;9.278;2023-05-19T07:23:32;101853.53;;;13.91;53.48
11499;BME280;5806;48.748;9.278;2023-05-19T07:25:59;101850.37;;;13.97;52.39
11499;BME280;5806;48.748;9.278;2023-05-19T07:28:27;101850.61;;;13.95;51.67
11499;BME280;5806;48.748;9.278;2023-05-19T07:30:54;101851.34;;;13.91;53.12
11499;BME280;5806;48.748;9.278;2023-05-19T07:33:22;101854.09;;;13.91;53.48
11499;BME280;5806;48.748;9.278;2023-05-19T07:35:49;101850.31;;;13.94;52.62
11499;BME280;5806;48.748;9.278;2023-05-19T07:38:17;101850.94;;;14.19;50.67
11499;BME280;5806;48.748;9.278;2023-05-19T07:40:44;101849.16;;;14.13;50.98
11499;BME280;5806;48.748;9.278;2023-05-19T07:43:12;101853.10;;;14.17;50.30
11499;BME280;5806;48.748;9.278;2023-05-19T07:45:39;101853.52;;;14.12;52.67
11499;BME280;5806;48.748;9.278;2023-05-19T07:48:06;101853.30;;;14.25;49.73
11499;BME280;5806;48.748;9.278;2023-05-19T07:50:34;101853.66;;;14.28;51.00
11499;BME280;5806;48.748;9.278;2023-05-19T07:53:02;101849.05;;;14.31;50.66
11499;BME280;5806;48.748;9.278;2023-05-19T07:55:29;101843.20;;;14.51;49.68
11499;BME280;5806;48.748;9.278;2023-05-19T07:57:57;101839.71;;;14.32;50.38
11499;BME280;5806;48.748;9.278;2023-05-19T08:00:24;101836.45;;;14.21;54.43
11499;BME280;5806;48.748;9.278;2023-05-19T08:02:52;101834.72;;;14.09;55.38
11499;BME280;5806;48.748;9.278;2023-05-19T08:05:19;101828.97;;;14.31;51.28
11499;BME280;5806;48.748;9.278;2023-05-19T08:07:46;101825.84;;;14.27;52.23
11499;BME280;5806;48.748;9.278;2023-05-19T08:10:14;101830.75;;;14.37;52.07
11499;BME280;5806;48.748;9.278;2023-05-19T08:12:41;101820.51;;;14.46;50.08
11499;BME280;5806;48.748;9.278;2023-05-19T08:15:09;101817.30;;;14.63;50.57
11499;BME280;5806;48.748;9.278;2023-05-19T08:17:39;101823.80;;;14.57;48.39
11499;BME280;5806;48.748;9.278;2023-05-19T08:20:07;101821.25;;;14.67;49.55
11499;BME280;5806;48.748;9.278;2023-05-19T08:22:36;101811.75;;;15.01;49.26
11499;BME280;5806;48.748;9.278;2023-05-19T08:25:03;101810.97;;;15.17;48.86
11499;BME280;5806;48.748;9.278;2023-05-19T08:27:31;101815.77;;;15.49;49.19
11499;BME280;5806;48.748;9.278;2023-05-19T08:29:59;101810.89;;;15.26;53.55
11499;BME280;5806;48.748;9.278;2023-05-19T08:32:26;101811.72;;;15.12;50.06
11499;BME280;5806;48.748;9.278;2023-05-19T08:34:54;101804.52;;;15.11;48.39
11499;BME280;5806;48.748;9.278;2023-05-19T08:37:21;101779.36;;;14.79;50.11
11499;BME280;5806;48.748;9.278;2023-05-19T08:39:49;101805.34;;;15.37;46.89
11499;BME280;5806;48.748;9.278;2023-05-19T08:42:16;101797.72;;;15.30;47.55
11499;BME280;5806;48.748;9.278;2023-05-19T08:44:44;101799.61;;;15.13;46.52
11499;BME280;5806;48.748;9.278;2023-05-19T08:47:11;101794.82;;;15.09;47.28
11499;BME280;5806;48.748;9.278;2023-05-19T08:49:44;101791.73;;;15.05;48.00
11499;BME280;5806;48.748;9.278;2023-05-19T08:52:34;101780.89;;;15.15;48.03
11499;BME280;5806;48.748;9.278;2023-05-19T08:55:07;101788.64;;;15.30;46.97
11499;BME280;5806;48.748;9.278;2023-05-19T08:57:35;101786.17;;;15.31;46.23
11499;BME280;5806;48.748;9.278;2023-05-19T09:00:05;101780.61;;;15.42;48.77
11499;BME280;5806;48.748;9.278;2023-05-19T09:02:38;101779.84;;;15.33;46.29
11499;BME280;5806;48.748;9.278;2023-05-19T09:05:06;101774.09;;;15.34;47.03
11499;BME280;5806;48.748;9.278;2023-05-19T09:07:35;101773.44;;;15.41;46.77
11499;BME280;5806;48.748;9.278;2023-05-19T09:10:03;101775.96;;;15.76;44.77
11499;BME280;5806;48.748;9.278;2023-05-19T09:12:32;101775.26;;;15.83;43.86
11499;BME280;5806;48.748;9.278;2023-05-19T09:15:00;101773.67;;;15.87;45.38
11499;BME280;5806;48.748;9.278;2023-05-19T09:17:28;101769.17;;;15.83;45.55
11499;BME280;5806;48.748;9.278;2023-05-19T09:19:55;101774.30;;;15.75;47.09
11499;BME280;5806;48.748;9.278;2023-05-19T09:22:23;101761.49;;;15.69;47.45
11499;BME280;5806;48.748;9.278;2023-05-19T09:24:50;101764.63;;;15.58;48.57
11499;BME280;5806;48.748;9.278;2023-05-19T09:27:22;101761.44;;;15.50;50.10
11499;BME280;5806;48.748;9.278;2023-05-19T09:29:49;101752.91;;;15.51;47.32
11499;BME280;5806;48.748;9.278;2023-05-19T09:32:24;101752.80;;;15.44;48.75
11499;BME280;5806;48.748;9.278;2023-05-19T09:34:54;101752.88;;;15.49;46.71
11499;BME280;5806;48.748;9.278;2023-05-19T09:37:23;101744.48;;;15.41;47.18
11499;BME280;5806;48.748;9.278;2023-05-19T09:39:51;101746.73;;;15.61;45.24
11499;BME280;5806;48.748;9.278;2023-05-19T09:42:26;101734.30;;;15.75;45.51
11499;BME280;5806;48.748;9.278;2023-05-19T09:44:59;101743.03;;;16.05;45.68
11499;BME280;5806;48.748;9.278;2023-05-19T09:47:37;101738.78;;;16.54;47.94
11499;BME280;5806;48.748;9.278;2023-05-19T09:49:56;101734.87;;;16.50;47.04
11499;BME280;5806;48.748;9.278;2023-05-19T09:52:24;101736.17;;;16.26;46.33
11499;BME280;5806;48.748;9.278;2023-05-19T09:54:52;101731.21;;;16.28;48.57
11499;BME280;5806;48.748;9.278;2023-05-19T09:57:25;101727.78;;;16.00;45.05
11499;BME280;5806;48.748;9.278;2023-05-19T09:59:55;101734.16;;;15.84;46.43
11499;BME280;5806;48.748;9.278;2023-05-19T10:02:25;101729.52;;;15.70;47.23
11499;BME280;5806;48.748;9.278;2023-05-19T10:04:54;101739.31;;;15.61;48.77
11499;BME280;5806;48.748;9.278;2023-05-19T10:07:22;101730.55;;;15.83;45.86
11499;BME280;5806;48.748;9.278;2023-05-19T10:09:51;101728.31;;;15.99;46.06
11499;BME280;5806;48.748;9.278;2023-05-19T10:12:20;101728.66;;;16.03;45.76
11499;BME280;5806;48.748;9.278;2023-05-19T10:14:48;101721.81;;;15.89;47.81
11499;BME280;5806;48.748;9.278;2023-05-19T10:17:17;101723.20;;;16.08;44.48
11499;BME280;5806;48.748;9.278;2023-05-19T10:19:46;101726.19;;;16.23;43.40
11499;BME280;5806;48.748;9.278;2023-05-19T10:22:14;101719.16;;;16.34;43.36
11499;BME280;5806;48.748;9.278;2023-05-19T10:24:41;101720.82;;;16.35;42.54
11499;BME280;5806;48.748;9.278;2023-05-19T10:27:11;101719.05;;;16.46;41.57
11499;BME280;5806;48.748;9.278;2023-05-19T10:29:43;101716.56;;;16.25;42.37
11499;BME280;5806;48.748;9.278;2023-05-19T10:32:13;101708.45;;;16.40;42.62
11499;BME280;5806;48.748;9.278;2023-05-19T10:37:43;101709.02;;;16.40;46.01
11499;BME280;5806;48.748;9.278;2023-05-19T10:40:34;101701.33;;;16.63;43.88
11499;BME280;5806;48.748;9.278;2023-05-19T10:45:53;101706.92;;;16.95;43.81
11499;BME280;5806;48.748;9.278;2023-05-19T10:48:21;101706.61;;;17.18;42.77
11499;BME280;5806;48.748;9.278;2023-05-19T10:50:53;101693.54;;;17.11;42.14
11499;BME280;5806;48.748;9.278;2023-05-19T10:53:21;101693.17;;;17.29;41.10
11499;BME280;5806;48.748;9.278;2023-05-19T10:55:52;101685.89;;;17.49;42.54
11499;BME280;5806;48.748;9.278;2023-05-19T11:01:14;101695.73;;;17.38;40.48
11499;BME280;5806;48.748;9.278;2023-05-19T11:03:52;101693.67;;;17.23;41.80
11499;BME280;5806;48.748;9.278;2023-05-19T11:06:34;101690.86;;;17.45;39.93
11499;BME280;5806;48.748;9.278;2023-05-19T11:09:13;101685.31;;;17.42;41.10
11499;BME280;5806;48.748;9.278;2023-05-19T11:11:49;101694.67;;;17.73;41.10
11499;BME280;5806;48.748;9.278;2023-05-19T11:14:21;101688.48;;;17.29;38.72
11499;BME280;5806;48.748;9.278;2023-05-19T11:16:55;101678.97;;;17.47;40.58
11499;BME280;5806;48.748;9.278;2023-05-19T11:19:31;101668.05;;;18.11;41.28
11499;BME280;5806;48.748;9.278;2023-05-19T11:22:10;101667.54;;;18.21;41.68
11499;BME280;5806;48.748;9.278;2023-05-19T11:24:47;101669.61;;;18.38;39.50
11499;BME280;5806;48.748;9.278;2023-05-19T11:27:30;101669.88;;;18.37;38.15
11499;BME280;5806;48.748;9.278;2023-05-19T11:32:32;101676.42;;;17.74;38.20
11499;BME280;5806;48.748;9.278;2023-05-19T11:35:01;101663.31;;;17.60;37.46
11499;BME280;5806;48.748;9.278;2023-05-19T11:37:31;101657.45;;;17.95;38.94
11499;BME280;5806;48.748;9.278;2023-05-19T11:40:02;101661.33;;;17.94;38.10
11499;BME280;5806;48.748;9.278;2023-05-19T11:42:31;101651.17;;;18.15;39.61
11499;BME280;5806;48.748;9.278;2023-05-19T11:45:00;101654.78;;;18.13;39.73
11499;BME280;5806;48.748;9.278;2023-05-19T11:47:29;101647.55;;;18.09;40.08
11499;BME280;5806;48.748;9.278;2023-05-19T11:49:58;101656.20;;;18.23;41.86
11499;BME280;5806;48.748;9.278;2023-05-19T11:52:26;101658.49;;;18.36;39.78
11499;BME280;5806;48.748;9.278;2023-05-19T11:54:54;101645.71;;;18.30;38.09
11499;BME280;5806;48.748;9.278;2023-05-19T11:57:22;101649.02;;;18.27;40.75
11499;BME280;5806;48.748;9.278;2023-05-19T11:59:49;101651.42;;;18.08;40.42
11499;BME280;5806;48.748;9.278;2023-05-19T12:02:24;101638.45;;;17.65;40.07
11499;BME280;5806;48.748;9.278;2023-05-19T12:04:51;101647.12;;;17.78;40.14
11499;BME280;5806;48.748;9.278;2023-05-19T12:07:22;101641.01;;;17.79;41.54
11499;BME280;5806;48.748;9.278;2023-05-19T12:09:51;101632.28;;;17.53;40.75
11499;BME280;5806;48.748;9.278;2023-05-19T12:12:20;101629.08;;;17.37;41.19
11499;BME280;5806;48.748;9.278;2023-05-19T12:14:49;101633.32;;;17.88;42.65
11499;BME280;5806;48.748;9.278;2023-05-19T12:17:19;101622.67;;;18.14;39.20
11499;BME280;5806;48.748;9.278;2023-05-19T12:19:47;101619.31;;;18.10;37.77
11499;BME280;5806;48.748;9.278;2023-05-19T12:22:16;101614.57;;;18.03;36.95
11499;BME280;5806;48.748;9.278;2023-05-19T12:24:44;101613.37;;;18.40;38.10
11499;BME280;5806;48.748;9.278;2023-05-19T12:27:19;101618.73;;;18.08;39.48
11499;BME280;5806;48.748;9.278;2023-05-19T12:29:52;101612.98;;;18.17;38.35
11499;BME280;5806;48.748;9.278;2023-05-19T12:32:24;101605.06;;;18.40;39.02
11499;BME280;5806;48.748;9.278;2023-05-19T12:34:52;101599.56;;;18.53;38.00
11499;BME280;5806;48.748;9.278;2023-05-19T12:37:20;101599.24;;;18.37;37.49
11499;BME280;5806;48.748;9.278;2023-05-19T12:39:50;101599.87;;;18.79;38.09
11499;BME280;5806;48.748;9.278;2023-05-19T12:42:18;101599.63;;;18.98;39.45
11499;BME280;5806;48.748;9.278;2023-05-19T12:44:47;101596.83;;;18.78;36.96
11499;BME280;5806;48.748;9.278;2023-05-19T12:47:17;101591.98;;;18.33;36.92
11499;BME280;5806;48.748;9.278;2023-05-19T12:50:08;101597.34;;;18.57;38.89
11499;BME280;5806;48.748;9.278;2023-05-19T12:52:44;101593.48;;;18.66;38.57
11499;BME280;5806;48.748;9.278;2023-05-19T12:55:12;101592.06;;;18.56;37.43
11499;BME280;5806;48.748;9.278;2023-05-19T12:57:43;101594.83;;;18.51;38.41
11499;BME280;5806;48.748;9.278;2023-05-19T13:00:16;101589.02;;;18.55;37.71
11499;BME280;5806;48.748;9.278;2023-05-19T13:03:04;101582.70;;;18.89;38.93
11499;BME280;5806;48.748;9.278;2023-05-19T13:05:33;101585.47;;;18.89;39.31
11499;BME280;5806;48.748;9.278;2023-05-19T13:08:07;101597.40;;;18.90;37.42
11499;BME280;5806;48.748;9.278;2023-05-19T13:10:36;101583.55;;;18.85;37.41
11499;BME280;5806;48.748;9.278;2023-05-19T13:13:05;101575.20;;;18.70;36.35
11499;BME280;5806;48.748;9.278;2023-05-19T13:15:35;101573.00;;;18.79;39.11
11499;BME280;5806;48.748;9.278;2023-05-19T13:18:04;101571.32;;;18.98;37.33
11499;BME280;5806;48.748;9.278;2023-05-19T13:20:32;101570.77;;;19.19;37.83
11499;BME280;5806;48.748;9.278;2023-05-19T13:23:00;101563.58;;;19.13;37.59
11499;BME280;5806;48.748;9.278;2023-05-19T13:25:28;101558.30;;;18.99;38.78
11499;BME280;5806;48.748;9.278;2023-05-19T13:27:56;101568.02;;;19.11;38.88
11499;BME280;5806;48.748;9.278;2023-05-19T13:30:25;101574.66;;;19.03;37.16
11499;BME280;5806;48.748;9.278;2023-05-19T13:32:52;101567.70;;;18.68;39.28
11499;BME280;5806;48.748;9.278;2023-05-19T13:35:21;101569.09;;;18.53;39.59
11499;BME280;5806;48.748;9.278;2023-05-19T13:37:48;101575.16;;;18.42;38.10
11499;BME280;5806;48.748;9.278;2023-05-19T13:40:16;101567.30;;;18.22;39.18
11499;BME280;5806;48.748;9.278;2023-05-19T13:42:45;101563.35;;;18.03;39.29